createdAt,value
2018-01-31T01:52:21.053Z,56.73
2018-01-31T01:54:32.912Z,61.43
2018-01-31T01:56:59.115Z,56.97
2018-01-31T01:59:25.363Z,64.62
2018-01-31T02:01:51.689Z,64.97
2018-01-31T02:04:17.942Z,61.22
2018-01-31T02:06:44.249Z,64.22
2018-01-31T02:09:10.454Z,61.47
2018-01-31T02:11:36.679Z,59.22
2018-01-31T02:14:03.014Z,64.18
2018-01-31T02:16:29.210Z,56.77
2018-01-31T02:18:55.419Z,57.35
2018-01-31T02:21:21.860Z,55.26
2018-01-31T02:23:48.088Z,58.86
2018-01-31T02:26:14.320Z,58.54
2018-01-31T02:28:40.571Z,55.72
2018-01-31T02:31:06.775Z,57.37
2018-01-31T02:33:32.996Z,57.67
2018-01-31T02:35:59.247Z,55.50
2018-01-31T02:38:46.395Z,55.85
2018-01-31T02:41:12.559Z,57.40
2018-01-31T02:43:38.873Z,55.70
2018-01-31T02:46:05.119Z,55.24
2018-01-31T02:48:31.363Z,57.51
2018-01-31T02:50:57.661Z,56.22
2018-01-31T02:53:23.862Z,55.70
2018-01-31T02:55:50.220Z,55.83
2018-01-31T02:58:16.474Z,55.66
2018-01-31T03:00:42.780Z,56.00
2018-01-31T03:03:09.008Z,55.68
2018-01-31T03:05:35.339Z,58.87
2018-01-31T03:08:01.571Z,56.54
2018-01-31T03:10:27.806Z,56.53
2018-01-31T03:12:54.175Z,56.47
2018-01-31T03:15:20.431Z,65.07
2018-01-31T03:17:46.659Z,63.73
2018-01-31T03:20:13.020Z,59.57
2018-01-31T03:22:39.278Z,58.38
2018-01-31T03:25:05.577Z,56.66
2018-01-31T03:27:31.840Z,60.89
2018-01-31T03:29:58.067Z,59.48
2018-01-31T03:32:24.294Z,56.30
2018-01-31T03:34:50.543Z,57.63
2018-01-31T03:37:16.763Z,59.00
2018-01-31T03:39:42.983Z,57.65
2018-01-31T03:42:09.207Z,62.32
2018-01-31T03:44:35.403Z,65.15
2018-01-31T03:47:01.667Z,63.61
2018-01-31T03:49:27.911Z,63.36
2018-01-31T03:51:54.127Z,61.75
2018-01-31T03:54:20.347Z,66.65
2018-01-31T03:56:46.615Z,64.14
2018-01-31T03:59:12.829Z,60.56
2018-01-31T04:01:39.034Z,56.59
2018-01-31T04:04:05.271Z,56.60
2018-01-31T04:06:31.495Z,56.13
2018-01-31T04:08:57.812Z,56.17
2018-01-31T04:11:24.383Z,56.28
2018-01-31T04:13:50.598Z,56.54
2018-01-31T04:16:16.811Z,56.64
2018-01-31T04:18:43.099Z,56.33
2018-01-31T04:21:09.295Z,56.48
2018-01-31T04:23:35.498Z,57.28
2018-01-31T04:26:01.739Z,57.25
2018-01-31T04:28:28.029Z,57.86
2018-01-31T04:30:54.284Z,59.35
2018-01-31T04:33:20.491Z,59.44
2018-01-31T04:35:46.694Z,59.69
2018-01-31T04:38:12.942Z,57.14
2018-01-31T04:40:39.142Z,57.09
2018-01-31T04:43:05.335Z,57.41
2018-01-31T04:45:31.628Z,57.55
2018-01-31T04:47:57.839Z,57.28
2018-01-31T04:50:24.058Z,57.64
2018-01-31T04:52:50.263Z,58.42
2018-01-31T04:55:16.503Z,57.82
2018-01-31T04:57:42.743Z,57.69
2018-01-31T05:00:08.939Z,57.99
2018-01-31T05:02:35.159Z,58.01
2018-01-31T05:05:01.395Z,58.10
2018-01-31T05:07:27.648Z,58.23
2018-01-31T05:09:53.846Z,58.06
2018-01-31T05:12:20.142Z,58.08
2018-01-31T05:14:46.478Z,58.67
2018-01-31T05:17:12.675Z,58.61
2018-01-31T05:19:38.936Z,59.59
2018-01-31T05:22:05.206Z,59.30
2018-01-31T05:24:31.507Z,59.14
2018-01-31T05:26:57.856Z,58.98
2018-01-31T05:29:24.207Z,59.03
2018-01-31T05:31:50.419Z,58.47
2018-01-31T05:34:16.679Z,58.58
2018-01-31T05:36:42.943Z,59.61
2018-01-31T05:39:09.151Z,60.07
2018-01-31T05:41:35.395Z,59.75
2018-01-31T05:44:01.603Z,59.40
2018-01-31T05:46:27.819Z,60.10
2018-01-31T05:48:54.031Z,59.25
2018-01-31T05:51:20.346Z,59.81
2018-01-31T05:53:46.619Z,59.82
2018-01-31T05:56:12.835Z,59.77
2018-01-31T05:58:39.228Z,59.51
2018-01-31T06:01:05.478Z,59.71
2018-01-31T06:03:31.699Z,60.58
2018-01-31T06:05:57.910Z,59.73
2018-01-31T06:08:24.163Z,60.63
2018-01-31T06:10:50.427Z,59.86
2018-01-31T06:13:16.623Z,60.15
2018-01-31T06:15:42.879Z,60.23
2018-01-31T06:18:09.173Z,59.23
2018-01-31T06:20:35.507Z,59.13
2018-01-31T06:23:02.177Z,59.11
2018-01-31T06:25:28.463Z,58.73
2018-01-31T06:27:54.686Z,59.50
2018-01-31T06:30:20.934Z,59.78
2018-01-31T06:32:47.143Z,59.94
2018-01-31T06:35:13.371Z,59.87
2018-01-31T06:37:39.647Z,59.38
2018-01-31T06:40:05.866Z,58.88
2018-01-31T06:42:32.132Z,59.13
2018-01-31T06:44:58.387Z,59.06
2018-01-31T06:47:24.619Z,59.01
2018-01-31T06:49:50.851Z,59.05
2018-01-31T06:52:17.071Z,59.17
2018-01-31T06:54:43.345Z,58.47
2018-01-31T06:57:09.555Z,60.72
2018-01-31T06:59:35.766Z,59.21
2018-01-31T07:02:01.991Z,59.26
2018-01-31T07:04:28.227Z,59.99
2018-01-31T07:06:54.530Z,59.80
2018-01-31T07:09:20.983Z,59.84
2018-01-31T07:11:47.286Z,60.07
2018-01-31T07:14:13.512Z,59.55
2018-01-31T07:16:39.844Z,66.24
2018-01-31T07:19:06.260Z,62.44
2018-01-31T07:21:32.484Z,60.73
2018-01-31T07:23:59.075Z,60.64
2018-01-31T07:26:25.335Z,59.26
2018-01-31T07:28:51.551Z,62.50
2018-01-31T07:31:17.763Z,67.25
2018-01-31T07:33:44.011Z,60.35
2018-01-31T07:36:10.223Z,59.51
2018-01-31T07:38:36.451Z,65.31
2018-01-31T07:41:02.819Z,65.29
2018-01-31T07:43:29.016Z,61.26
2018-01-31T07:45:55.304Z,60.03
2018-01-31T07:48:21.562Z,58.07
2018-01-31T07:50:47.779Z,60.40
2018-01-31T07:53:14.019Z,58.40
2018-01-31T07:55:40.243Z,61.89
2018-01-31T07:58:06.483Z,63.49
2018-01-31T08:00:32.850Z,57.83
2018-01-31T08:02:59.064Z,57.13
2018-01-31T08:05:25.303Z,59.64
2018-01-31T08:07:51.539Z,62.58
2018-01-31T08:10:17.767Z,61.71
2018-01-31T08:12:44.106Z,57.86
2018-01-31T08:15:10.319Z,62.26
2018-01-31T08:17:36.527Z,63.52
2018-01-31T08:20:02.835Z,59.88
2018-01-31T08:22:29.058Z,62.81
2018-01-31T08:24:55.286Z,61.25
2018-01-31T08:27:21.597Z,62.92
2018-01-31T08:29:47.842Z,62.44
2018-01-31T08:32:14.156Z,62.57
2018-01-31T08:34:40.427Z,62.53
2018-01-31T08:37:06.643Z,62.79
2018-01-31T08:39:32.895Z,58.95
2018-01-31T08:41:59.156Z,57.99
2018-01-31T08:44:25.375Z,59.38
2018-01-31T08:46:51.603Z,51.30
2018-01-31T08:49:17.961Z,49.38
2018-01-31T08:51:44.165Z,58.31
2018-01-31T08:54:10.347Z,60.68
2018-01-31T08:56:36.559Z,60.39
2018-01-31T08:59:02.823Z,60.40
2018-01-31T09:01:29.044Z,61.56
2018-01-31T09:03:55.203Z,51.91
2018-01-31T09:06:21.371Z,54.33
2018-01-31T09:08:47.559Z,58.04
2018-01-31T09:11:13.706Z,58.71
2018-01-31T09:13:39.871Z,58.83
2018-01-31T09:16:06.039Z,49.21
2018-01-31T09:18:32.243Z,47.81
2018-01-31T09:20:58.474Z,56.28
2018-01-31T09:23:24.676Z,56.76
2018-01-31T09:25:51.059Z,58.03
2018-01-31T09:28:17.283Z,58.55
2018-01-31T09:30:43.442Z,57.74
2018-01-31T09:33:09.628Z,59.47
2018-01-31T09:35:35.867Z,58.76
2018-01-31T09:38:02.199Z,59.34
2018-01-31T09:40:28.398Z,58.72
2018-01-31T09:42:54.745Z,48.71
2018-01-31T09:45:21.230Z,54.02
2018-01-31T09:47:47.393Z,56.43
2018-01-31T09:50:13.877Z,49.50
2018-01-31T09:52:40.055Z,51.15
2018-01-31T09:55:06.210Z,53.22
2018-01-31T09:57:32.407Z,44.65
2018-01-31T09:59:58.559Z,53.66
2018-01-31T10:02:24.712Z,42.93
2018-01-31T10:04:51.051Z,51.35
2018-01-31T10:07:17.227Z,54.36
2018-01-31T10:09:44.271Z,43.79
2018-01-31T10:12:10.502Z,48.18
2018-01-31T10:14:37.542Z,48.65
2018-01-31T10:17:03.901Z,43.49
2018-01-31T10:19:30.190Z,50.66
2018-01-31T10:21:56.344Z,51.66
2018-01-31T10:24:22.588Z,49.81
2018-01-31T10:26:48.960Z,39.83
2018-01-31T10:29:15.575Z,50.93
2018-01-31T10:31:42.758Z,54.44
2018-01-31T10:34:09.629Z,40.82
2018-01-31T10:36:36.022Z,38.51
2018-01-31T10:39:02.214Z,47.44
2018-01-31T10:41:28.603Z,46.28
2018-01-31T10:43:54.755Z,52.52
2018-01-31T10:46:21.055Z,51.32
2018-01-31T10:48:47.249Z,52.98
2018-01-31T10:51:13.407Z,52.47
2018-01-31T10:58:32.074Z,42.26
2018-01-31T11:00:58.415Z,39.00
2018-01-31T11:03:24.737Z,37.78
2018-01-31T11:05:51.027Z,47.33
2018-01-31T11:08:17.766Z,38.82
2018-01-31T11:10:44.155Z,50.11
2018-01-31T11:13:10.685Z,51.04
2018-01-31T11:15:36.923Z,52.01
2018-01-31T11:18:03.110Z,49.77
2018-01-31T11:20:29.262Z,38.72
2018-01-31T11:22:55.451Z,45.48
2018-01-31T11:25:21.705Z,35.95
2018-01-31T11:27:47.915Z,38.30
2018-01-31T11:30:14.094Z,35.63
2018-01-31T11:32:40.320Z,33.49
2018-01-31T11:35:06.490Z,37.68
2018-01-31T11:37:32.674Z,33.08
2018-01-31T11:39:58.874Z,33.58
2018-01-31T11:42:25.059Z,36.13
2018-01-31T11:44:51.399Z,33.50
2018-01-31T11:47:17.634Z,34.35
2018-01-31T11:49:43.814Z,48.98
2018-01-31T11:52:10.054Z,37.57
2018-01-31T11:54:36.477Z,45.70
2018-01-31T11:57:02.879Z,47.10
2018-01-31T11:59:29.083Z,48.87
2018-01-31T12:01:55.283Z,46.60
2018-01-31T12:04:21.447Z,42.29
2018-01-31T12:06:47.810Z,49.79
2018-01-31T12:09:20.167Z,53.02
2018-01-31T12:11:46.479Z,46.01
2018-01-31T12:14:18.951Z,38.50
2018-01-31T12:16:53.843Z,49.98
2018-01-31T12:19:26.159Z,49.65
2018-01-31T12:21:52.415Z,41.74
2018-01-31T12:24:25.091Z,45.40
2018-01-31T12:27:09.337Z,38.91
2018-01-31T12:29:48.398Z,46.77
2018-01-31T12:32:20.736Z,41.90
2018-01-31T12:34:52.878Z,44.79
2018-01-31T12:37:24.948Z,41.20
2018-01-31T12:39:50.906Z,42.12
2018-01-31T12:42:16.931Z,46.20
2018-01-31T12:44:43.722Z,38.99
2018-01-31T12:47:15.687Z,44.08
2018-01-31T12:49:47.692Z,44.13
2018-01-31T12:52:28.570Z,40.77
2018-01-31T12:55:00.759Z,41.02
2018-01-31T12:57:29.991Z,47.26
2018-01-31T13:00:02.227Z,40.95
2018-01-31T13:15:54.758Z,50.30
2018-01-31T13:18:27.011Z,47.21
2018-01-31T13:20:59.222Z,42.83
2018-01-31T13:23:25.390Z,42.96
2018-01-31T13:25:57.797Z,47.63
2018-01-31T13:28:36.011Z,48.47
2018-01-31T13:31:15.231Z,44.86
2018-01-31T13:33:47.355Z,45.17
2018-01-31T13:36:19.487Z,50.57
2018-01-31T13:38:51.708Z,42.20
2018-01-31T13:41:23.776Z,51.63
2018-01-31T13:43:56.214Z,52.55
2018-01-31T13:46:28.248Z,50.93
2018-01-31T13:49:11.155Z,52.16
2018-01-31T13:51:43.196Z,52.11
2018-01-31T13:54:15.222Z,51.30
2018-01-31T13:56:47.379Z,42.26
2018-01-31T13:59:19.395Z,43.44
2018-01-31T14:01:51.664Z,42.19
2018-01-31T14:04:23.896Z,51.32
2018-01-31T14:06:55.984Z,52.73
2018-01-31T14:09:28.288Z,51.85
2018-01-31T14:12:00.474Z,43.37
2018-01-31T14:14:32.502Z,47.30
2018-01-31T14:17:04.519Z,43.58
2018-01-31T14:19:36.590Z,49.60
2018-01-31T14:22:08.650Z,50.62
2018-01-31T14:24:40.838Z,53.84
2018-01-31T14:27:12.995Z,53.13
2018-01-31T14:29:45.135Z,52.04
2018-01-31T14:32:17.288Z,51.18
2018-01-31T14:34:49.507Z,48.78
2018-01-31T14:37:15.422Z,50.27
2018-01-31T14:39:41.319Z,51.51
2018-01-31T14:42:07.231Z,50.37
2018-01-31T14:44:33.151Z,53.17
2018-01-31T14:46:59.106Z,47.54
2018-01-31T14:49:25.006Z,43.37
2018-01-31T14:51:50.890Z,53.49
2018-01-31T14:54:17.018Z,46.54
2018-01-31T14:56:42.927Z,52.36
2018-01-31T14:59:08.814Z,47.87
2018-01-31T15:01:34.711Z,52.62
2018-01-31T15:04:00.663Z,52.67
2018-01-31T15:06:26.554Z,54.85
2018-01-31T15:08:52.455Z,47.46
2018-01-31T15:11:18.460Z,55.57
2018-01-31T15:13:44.484Z,50.15
2018-01-31T15:16:10.418Z,55.34
2018-01-31T15:18:36.480Z,56.08
2018-01-31T15:21:02.431Z,56.65
2018-01-31T15:23:28.363Z,56.81
2018-01-31T15:25:54.262Z,54.21
2018-01-31T15:28:20.194Z,56.29
2018-01-31T15:30:46.120Z,53.75
2018-01-31T15:33:12.035Z,48.59
2018-01-31T15:35:37.991Z,56.03
2018-01-31T15:38:03.903Z,55.55
2018-01-31T15:40:29.800Z,55.79
2018-01-31T15:42:55.848Z,51.33
2018-01-31T15:45:21.742Z,51.99
2018-01-31T15:47:47.775Z,46.59
2018-01-31T15:50:13.714Z,47.72
2018-01-31T15:52:39.610Z,49.63
2018-01-31T15:55:05.541Z,48.19
2018-01-31T15:57:31.464Z,47.67
2018-01-31T15:59:57.397Z,47.13
2018-01-31T16:02:23.295Z,45.52
2018-01-31T16:04:49.198Z,47.46
2018-01-31T16:07:15.266Z,46.47
2018-01-31T16:09:41.167Z,52.29
2018-01-31T16:12:07.088Z,48.94
2018-01-31T16:14:33.133Z,46.75
2018-01-31T16:16:59.180Z,50.07
2018-01-31T16:19:31.146Z,47.05
2018-01-31T16:21:57.264Z,48.82
2018-01-31T16:24:23.326Z,53.16
2018-01-31T16:26:49.492Z,51.28
2018-01-31T16:29:27.669Z,47.43
2018-01-31T16:31:59.604Z,48.99
2018-01-31T16:34:25.633Z,49.31
2018-01-31T16:36:51.723Z,49.33
2018-01-31T16:39:17.842Z,51.20
2018-01-31T16:41:43.883Z,51.95
2018-01-31T16:44:09.999Z,49.81
2018-01-31T16:46:36.047Z,49.87
2018-01-31T16:49:02.071Z,49.90
2018-01-31T16:51:28.191Z,57.85
2018-01-31T16:53:54.312Z,56.61
2018-01-31T16:56:20.387Z,51.82
2018-01-31T16:58:46.406Z,50.95
2018-01-31T17:01:12.459Z,49.85
2018-01-31T17:03:38.531Z,49.16
2018-01-31T17:06:04.630Z,54.71
2018-01-31T17:08:30.658Z,54.18
2018-01-31T17:10:56.738Z,48.88
2018-01-31T17:13:22.762Z,49.05
2018-01-31T17:15:48.913Z,49.37
2018-01-31T17:18:15.257Z,49.28
2018-01-31T17:20:42.442Z,49.53
2018-01-31T17:23:08.624Z,49.85
2018-01-31T17:25:34.973Z,50.55
2018-01-31T17:28:01.387Z,50.03
2018-01-31T17:30:27.602Z,49.90
2018-01-31T17:32:53.811Z,55.47
2018-01-31T17:35:20.006Z,51.37
2018-01-31T17:37:46.176Z,51.22
2018-01-31T17:40:12.342Z,51.11
2018-01-31T17:42:38.554Z,54.56
2018-01-31T17:45:04.738Z,57.29
2018-01-31T17:47:30.924Z,50.00
2018-01-31T17:49:57.388Z,51.82
2018-01-31T17:52:23.855Z,50.76
2018-01-31T17:54:50.241Z,50.54
2018-01-31T17:57:16.625Z,51.21
2018-01-31T17:59:43.016Z,50.59
2018-01-31T18:02:09.381Z,52.23
2018-01-31T18:04:35.781Z,52.05
2018-01-31T18:07:02.149Z,53.16
2018-01-31T18:09:28.590Z,50.62
2018-01-31T18:11:54.956Z,50.49
2018-01-31T18:14:21.379Z,50.93
2018-01-31T18:16:47.783Z,55.50
2018-01-31T18:19:14.141Z,51.12
2018-01-31T18:21:40.529Z,51.38
2018-01-31T18:24:07.951Z,51.96
2018-01-31T18:26:34.293Z,51.53
2018-01-31T18:29:00.668Z,51.93
2018-01-31T18:31:27.069Z,51.67
2018-01-31T18:33:53.558Z,51.79
2018-01-31T18:36:19.961Z,52.00
2018-01-31T18:38:46.395Z,52.21
2018-01-31T18:41:12.767Z,52.30
2018-01-31T18:43:39.165Z,52.31
2018-01-31T18:46:07.333Z,52.01
2018-01-31T18:48:33.688Z,52.15
2018-01-31T18:51:00.074Z,52.23
2018-01-31T18:53:26.489Z,52.55
2018-01-31T18:55:52.839Z,52.34
2018-01-31T18:58:19.198Z,52.28
2018-01-31T19:00:45.627Z,52.76
2018-01-31T19:03:11.988Z,53.25
2018-01-31T19:05:38.340Z,52.91
2018-01-31T19:08:05.505Z,53.20
2018-01-31T19:10:31.928Z,53.35
2018-01-31T19:12:58.376Z,53.51
2018-01-31T19:15:24.762Z,53.67
2018-01-31T19:17:51.133Z,53.56
2018-01-31T19:20:17.549Z,53.58
2018-01-31T19:22:43.892Z,53.44
2018-01-31T19:25:10.264Z,53.62
2018-01-31T19:27:36.693Z,53.54
2018-01-31T19:30:03.644Z,53.52
2018-01-31T19:32:29.985Z,53.83
2018-01-31T19:34:56.384Z,53.76
2018-01-31T19:37:22.779Z,53.94
2018-01-31T19:39:49.131Z,55.50
2018-01-31T19:42:15.575Z,58.88
2018-01-31T19:44:43.301Z,54.46
2018-01-31T19:47:09.644Z,53.99
2018-01-31T19:49:36.068Z,53.70
2018-01-31T19:52:02.416Z,54.31
2018-01-31T19:54:28.761Z,54.01
2018-01-31T19:56:55.160Z,54.04
2018-01-31T19:59:21.512Z,54.29
2018-01-31T20:01:47.876Z,54.54
2018-01-31T20:04:14.271Z,54.59
2018-01-31T20:06:40.627Z,54.71
2018-01-31T20:09:06.992Z,54.66
2018-01-31T20:11:33.444Z,54.71
2018-01-31T20:13:59.955Z,54.88
2018-01-31T20:16:26.348Z,60.44
2018-01-31T20:18:52.691Z,54.95
2018-01-31T20:21:19.132Z,54.60
2018-01-31T20:23:45.513Z,62.69
2018-01-31T20:26:11.889Z,55.31
2018-01-31T20:28:38.247Z,55.22
2018-01-31T20:31:04.611Z,54.56
2018-01-31T20:33:30.992Z,55.38
2018-01-31T20:35:57.340Z,56.34
2018-01-31T20:38:23.684Z,55.46
2018-01-31T20:40:50.029Z,55.72
2018-01-31T20:43:16.358Z,55.42
2018-01-31T20:45:42.768Z,56.21
2018-01-31T20:48:09.168Z,56.32
2018-01-31T20:50:35.525Z,57.80
2018-01-31T20:53:01.907Z,56.19
2018-01-31T20:55:28.280Z,55.80
2018-01-31T20:57:54.619Z,55.59
2018-01-31T21:00:21.000Z,56.43
2018-01-31T21:02:47.349Z,56.08
2018-01-31T21:05:14.338Z,56.01
2018-01-31T21:07:40.745Z,56.99
2018-01-31T21:10:07.168Z,56.68
2018-01-31T21:12:33.508Z,56.92
2018-01-31T21:14:59.847Z,56.62
2018-01-31T21:17:26.308Z,56.68
2018-01-31T21:19:52.700Z,61.29
2018-01-31T21:22:19.049Z,66.45
2018-01-31T21:24:45.447Z,60.91
2018-01-31T21:27:11.859Z,58.05
2018-01-31T21:29:38.243Z,56.96
2018-01-31T21:32:04.643Z,56.92
2018-01-31T21:34:30.984Z,56.73
2018-01-31T21:36:57.324Z,56.58
2018-01-31T21:39:23.814Z,56.58
2018-01-31T21:41:50.144Z,56.49
2018-01-31T21:44:16.527Z,56.55
2018-01-31T21:46:42.910Z,56.92
2018-01-31T21:49:09.279Z,57.08
2018-01-31T21:51:35.608Z,57.74
2018-01-31T21:54:01.976Z,56.78
2018-01-31T21:56:28.318Z,57.41
2018-01-31T21:58:54.660Z,56.92
2018-01-31T22:01:21.023Z,56.97
2018-01-31T22:03:47.430Z,56.96
2018-01-31T22:06:13.775Z,56.84
2018-01-31T22:08:40.142Z,56.70
2018-01-31T22:11:06.496Z,57.25
2018-01-31T22:13:32.871Z,56.71
2018-01-31T22:15:59.204Z,57.04
2018-01-31T22:18:25.555Z,57.64
2018-01-31T22:20:51.928Z,57.60
2018-01-31T22:23:18.256Z,57.47
2018-01-31T22:25:44.597Z,58.47
2018-01-31T22:28:10.943Z,57.67
2018-01-31T22:30:37.274Z,57.79
2018-01-31T22:33:03.658Z,58.10
2018-01-31T22:35:29.999Z,57.87
2018-01-31T22:37:56.334Z,57.73
2018-01-31T22:40:22.720Z,63.09
2018-01-31T22:42:49.059Z,63.32
2018-01-31T22:45:15.379Z,57.09
2018-01-31T22:47:41.755Z,57.10
2018-01-31T22:50:08.087Z,56.95
2018-01-31T22:52:34.424Z,57.57
2018-01-31T22:55:00.863Z,57.84
2018-01-31T22:57:27.239Z,59.31
2018-01-31T22:59:53.561Z,59.50
2018-01-31T23:02:19.912Z,60.15
2018-01-31T23:04:46.247Z,60.60
2018-01-31T23:07:12.648Z,60.17
2018-01-31T23:09:38.980Z,60.79
2018-01-31T23:12:11.255Z,59.97
2018-01-31T23:14:43.722Z,60.18
2018-01-31T23:17:10.092Z,60.22
2018-01-31T23:19:36.423Z,60.08
2018-01-31T23:22:02.791Z,60.26
2018-01-31T23:24:29.107Z,59.80
2018-01-31T23:26:55.443Z,59.25
2018-01-31T23:29:21.811Z,60.03
2018-01-31T23:31:48.122Z,59.92
2018-01-31T23:34:14.472Z,59.89
2018-01-31T23:36:40.799Z,59.78
2018-01-31T23:39:07.152Z,59.32
2018-01-31T23:41:33.495Z,59.51
2018-01-31T23:43:59.850Z,60.35
2018-01-31T23:46:26.204Z,60.12
2018-01-31T23:48:52.543Z,60.19
2018-01-31T23:51:18.923Z,60.53
2018-01-31T23:53:45.256Z,60.37
2018-01-31T23:56:11.587Z,59.97
2018-01-31T23:58:37.935Z,61.06
